Time;durP1;ratioP1;P1;durP2;ratioP2;P2;SDS_P1;SDS_P2;PMS_P1;PMS_P2;Temp;Humidity;BMP_temperature;BMP_pressure;BME280_temperature;BME280_humidity;BME280_pressure;Samples;Min_cycle;Max_cycle;Signal;HPM_P1;HPM_P2
2023/07/14 00:00:08;;;;;;;6.87;4.30;;;13.40;99.90;;;;;;5017065;28;20213;-77
2023/07/14 00:02:39;;;;;;;5.47;4.20;;;13.30;99.90;;;;;;5015839;28;20230;-77
2023/07/14 00:05:12;;;;;;;8.27;4.73;;;13.30;99.90;;;;;;5018908;28;20965;-76
2023/07/14 00:07:38;;;;;;;6.60;4.60;;;13.20;99.90;;;;;;5023457;28;20299;-77
2023/07/14 00:10:14;;;;;;;5.87;4.43;;;13.20;99.90;;;;;;5019775;28;20271;-77
2023/07/14 00:12:41;;;;;;;6.23;5.13;;;13.20;99.90;;;;;;5018743;28;20306;-77
2023/07/14 00:15:09;;;;;;;5.67;4.43;;;13.20;99.90;;;;;;5014295;28;20227;-77
2023/07/14 00:17:36;;;;;;;8.37;5.40;;;13.20;99.90;;;;;;5020096;28;20589;-76
2023/07/14 00:20:17;;;;;;;5.57;4.17;;;13.10;99.90;;;;;;5019949;28;20229;-76
2023/07/14 00:22:44;;;;;;;6.97;4.87;;;13.10;99.90;;;;;;5032759;28;20230;-77
2023/07/14 00:25:12;;;;;;;6.77;4.73;;;13.10;99.90;;;;;;5034726;28;20222;-77
2023/07/14 00:27:39;;;;;;;6.17;4.30;;;13.10;99.90;;;;;;5030300;28;20254;-76
2023/07/14 00:30:13;;;;;;;6.43;4.97;;;13.10;99.90;;;;;;5031178;28;20899;-77
2023/07/14 00:32:40;;;;;;;6.90;4.60;;;13.00;99.90;;;;;;5039576;28;20778;-78
2023/07/14 00:35:27;;;;;;;8.97;5.07;;;13.00;99.90;;;;;;5037750;28;20221;-77
2023/07/14 00:37:56;;;;;;;8.90;5.57;;;13.00;99.90;;;;;;5016098;28;20224;-78
2023/07/14 00:40:25;;;;;;;6.47;4.70;;;13.00;99.90;;;;;;5034237;28;20253;-78
2023/07/14 00:42:55;;;;;;;4.97;4.17;;;13.00;99.90;;;;;;5040451;28;20249;-78
2023/07/14 00:45:24;;;;;;;6.67;4.87;;;12.90;99.90;;;;;;5038931;28;20229;-76
2023/07/14 00:47:56;;;;;;;6.57;4.37;;;12.90;99.90;;;;;;5038650;28;20243;-77
2023/07/14 00:50:31;;;;;;;6.83;4.97;;;12.90;99.90;;;;;;5019186;28;20219;-77
2023/07/14 00:53:02;;;;;;;6.83;5.43;;;12.90;99.90;;;;;;5035420;28;20282;-77
2023/07/14 00:55:36;;;;;;;10.53;5.83;;;12.80;99.90;;;;;;5034941;28;20314;-77
2023/07/14 00:58:05;;;;;;;5.77;5.17;;;12.80;99.90;;;;;;5021230;28;20217;-79
2023/07/14 01:00:32;;;;;;;7.43;5.43;;;12.80;99.90;;;;;;5037682;28;20320;-78
2023/07/14 01:03:03;;;;;;;8.57;4.90;;;12.80;99.90;;;;;;5021207;28;20225;-77
2023/07/14 01:05:32;;;;;;;6.67;4.53;;;12.80;99.90;;;;;;5027830;28;20234;-77
2023/07/14 01:07:59;;;;;;;7.57;4.67;;;12.70;99.90;;;;;;5024731;28;20726;-77
2023/07/14 01:10:29;;;;;;;6.83;4.07;;;12.70;99.90;;;;;;5042402;28;20236;-78
2023/07/14 01:12:59;;;;;;;7.07;4.67;;;12.70;99.90;;;;;;5040483;28;20801;-77
2023/07/14 01:15:26;;;;;;;5.93;4.23;;;12.70;99.90;;;;;;5041866;28;20236;-77
2023/07/14 01:17:54;;;;;;;8.23;4.90;;;12.70;99.90;;;;;;5026160;28;20223;-77
2023/07/14 01:20:21;;;;;;;9.03;4.87;;;12.70;99.90;;;;;;5045213;28;20223;-77
2023/07/14 01:22:59;;;;;;;4.50;4.10;;;12.70;99.90;;;;;;5046434;28;20227;-78
2023/07/14 01:25:37;;;;;;;5.50;4.67;;;12.70;99.90;;;;;;5015795;28;20253;-77
2023/07/14 01:28:09;;;;;;;5.83;4.07;;;12.80;99.90;;;;;;5041887;28;20767;-78
2023/07/14 01:30:37;;;;;;;6.10;4.27;;;12.80;99.90;;;;;;5042258;28;20258;-78
2023/07/14 01:33:06;;;;;;;6.83;4.40;;;12.80;99.90;;;;;;5023338;28;20222;-78
2023/07/14 01:35:38;;;;;;;6.17;4.10;;;12.80;99.90;;;;;;5022977;28;20565;-78
2023/07/14 01:38:05;;;;;;;4.53;4.03;;;12.80;99.90;;;;;;5040863;28;20273;-78
2023/07/14 01:40:34;;;;;;;6.77;4.73;;;12.80;99.90;;;;;;5037696;28;20235;-78
2023/07/14 01:43:03;;;;;;;5.40;4.23;;;12.70;99.90;;;;;;5022460;28;20315;-78
2023/07/14 01:45:40;;;;;;;5.30;4.43;;;12.70;99.90;;;;;;5039356;28;20947;-78
2023/07/14 01:48:11;;;;;;;5.27;4.20;;;12.70;99.90;;;;;;5018787;28;20233;-77
2023/07/14 01:50:44;;;;;;;5.90;4.07;;;12.60;99.90;;;;;;5032893;28;20220;-77
2023/07/14 01:53:17;;;;;;;6.10;4.17;;;12.60;99.90;;;;;;5023957;28;20231;-77
2023/07/14 01:55:47;;;;;;;4.80;4.30;;;12.60;99.90;;;;;;5021251;28;20282;-78
2023/07/14 01:58:19;;;;;;;5.87;4.40;;;12.60;99.90;;;;;;5025195;28;20220;-78
2023/07/14 02:00:49;;;;;;;6.50;4.60;;;12.50;99.90;;;;;;5020736;28;20347;-77
2023/07/14 02:03:25;;;;;;;5.03;4.30;;;12.50;99.90;;;;;;5020914;28;20230;-80
2023/07/14 02:05:51;;;;;;;13.23;4.93;;;12.50;99.90;;;;;;5036013;28;20909;-78
2023/07/14 02:08:24;;;;;;;6.53;4.23;;;12.50;99.90;;;;;;5024574;28;20219;-78
2023/07/14 02:10:51;;;;;;;5.67;4.43;;;12.40;99.90;;;;;;5025241;28;20322;-77
2023/07/14 02:13:17;;;;;;;5.43;4.20;;;12.40;99.90;;;;;;5025611;28;20618;-78
2023/07/14 02:15:44;;;;;;;6.07;4.27;;;12.40;99.90;;;;;;5023584;28;20878;-78
2023/07/14 02:18:18;;;;;;;6.47;4.17;;;12.40;99.90;;;;;;5038764;28;20235;-78
2023/07/14 02:20:47;;;;;;;4.93;4.10;;;12.40;99.90;;;;;;5031724;28;20230;-77
2023/07/14 02:23:17;;;;;;;4.87;4.20;;;12.30;99.90;;;;;;5035731;28;20228;-77
2023/07/14 02:25:46;;;;;;;4.43;3.73;;;12.30;99.90;;;;;;5040865;28;20231;-78
2023/07/14 02:28:13;;;;;;;4.43;3.73;;;12.30;99.90;;;;;;5037176;28;20226;-78
2023/07/14 02:30:45;;;;;;;5.87;4.33;;;12.30;99.90;;;;;;5037274;28;20231;-78
2023/07/14 02:33:18;;;;;;;5.70;4.77;;;12.20;99.90;;;;;;5042277;28;20225;-77
2023/07/14 02:35:51;;;;;;;7.33;5.03;;;12.20;99.90;;;;;;5020705;28;20303;-77
2023/07/14 02:38:19;;;;;;;5.33;4.37;;;12.20;99.90;;;;;;5014089;28;20230;-78
2023/07/14 02:40:49;;;;;;;10.47;5.40;;;12.20;99.90;;;;;;5035034;28;20224;-78
2023/07/14 02:43:18;;;;;;;6.57;4.40;;;12.20;99.90;;;;;;5030603;28;20225;-78
2023/07/14 02:45:52;;;;;;;5.63;4.77;;;12.10;99.90;;;;;;5024297;28;20220;-78
2023/07/14 02:48:30;;;;;;;5.83;4.70;;;12.10;99.90;;;;;;5016413;28;20390;-78
2023/07/14 02:50:57;;;;;;;5.90;4.47;;;12.10;99.90;;;;;;5022548;28;20258;-77
2023/07/14 02:53:24;;;;;;;5.27;4.77;;;12.10;99.90;;;;;;5042443;28;20922;-77
2023/07/14 02:55:51;;;;;;;5.40;4.60;;;12.10;99.90;;;;;;5037486;28;20315;-77
2023/07/14 02:58:18;;;;;;;7.63;5.30;;;12.10;99.90;;;;;;5017956;28;20224;-77
2023/07/14 03:00:46;;;;;;;6.90;4.70;;;12.00;99.90;;;;;;5025566;28;20304;-78
2023/07/14 03:03:14;;;;;;;5.73;4.80;;;12.00;99.90;;;;;;5037556;28;20254;-77
2023/07/14 03:05:43;;;;;;;5.10;4.53;;;12.00;99.90;;;;;;5025302;28;20326;-78
2023/07/14 03:08:14;;;;;;;6.83;4.57;;;12.00;99.90;;;;;;5023079;28;20234;-77
2023/07/14 03:10:41;;;;;;;6.20;4.80;;;12.00;99.90;;;;;;5019595;28;20736;-77
2023/07/14 03:13:08;;;;;;;5.60;5.10;;;12.00;99.90;;;;;;5023523;28;20236;-77
2023/07/14 03:15:35;;;;;;;5.67;4.73;;;12.00;99.90;;;;;;5036141;28;20219;-78
2023/07/14 03:18:02;;;;;;;5.57;4.60;;;12.00;99.90;;;;;;5019308;28;20303;-78
2023/07/14 03:20:29;;;;;;;6.27;4.53;;;12.00;99.90;;;;;;5036913;28;20239;-77
2023/07/14 03:22:58;;;;;;;6.33;4.40;;;12.00;99.90;;;;;;5025653;28;20242;-77
2023/07/14 03:25:25;;;;;;;6.80;4.27;;;12.00;99.90;;;;;;5031182;28;20223;-77
2023/07/14 03:27:52;;;;;;;5.10;4.27;;;12.00;99.90;;;;;;5015554;28;20224;-77
2023/07/14 03:30:19;;;;;;;5.43;4.80;;;12.00;99.90;;;;;;5013585;28;20694;-77
2023/07/14 03:32:46;;;;;;;6.30;5.20;;;12.00;99.90;;;;;;5036648;28;20260;-77
2023/07/14 03:35:13;;;;;;;7.07;4.73;;;12.00;99.90;;;;;;5019151;28;20885;-77
2023/07/14 03:37:41;;;;;;;6.00;5.00;;;12.00;99.90;;;;;;5024060;28;20216;-78
2023/07/14 03:40:10;;;;;;;7.30;4.90;;;12.00;99.90;;;;;;5014659;28;20219;-77
2023/07/14 03:42:38;;;;;;;5.70;5.20;;;12.00;99.90;;;;;;5038818;23;20229;-78
2023/07/14 03:45:07;;;;;;;5.77;4.33;;;12.00;99.90;;;;;;5007899;28;20290;-78
2023/07/14 03:47:36;;;;;;;7.40;4.97;;;12.00;99.90;;;;;;5009220;28;20296;-78
2023/07/14 03:50:03;;;;;;;6.03;5.17;;;12.00;99.90;;;;;;5026685;28;20235;-76
2023/07/14 03:52:30;;;;;;;6.47;4.77;;;12.00;99.90;;;;;;5006654;28;20244;-78
2023/07/14 03:54:57;;;;;;;6.43;4.53;;;12.10;99.90;;;;;;5025078;28;20232;-75
2023/07/14 03:57:25;;;;;;;6.67;5.47;;;12.10;99.90;;;;;;5007504;28;20252;-78
2023/07/14 03:59:51;;;;;;;6.83;5.47;;;12.00;99.90;;;;;;5008057;28;20258;-78
2023/07/14 04:02:19;;;;;;;5.33;4.80;;;12.10;99.90;;;;;;5007682;28;20313;-77
2023/07/14 04:04:45;;;;;;;7.10;5.00;;;12.10;99.90;;;;;;5007901;28;20745;-78
2023/07/14 04:07:12;;;;;;;5.10;4.60;;;12.10;99.90;;;;;;5025836;28;20243;-78
2023/07/14 04:09:39;;;;;;;9.27;5.07;;;12.10;99.90;;;;;;5026520;28;20238;-78
2023/07/14 04:12:06;;;;;;;5.67;5.10;;;12.20;99.90;;;;;;5024622;28;20268;-77
2023/07/14 04:14:35;;;;;;;5.67;4.33;;;12.20;99.90;;;;;;5013357;28;20256;-78
2023/07/14 04:17:02;;;;;;;5.70;4.77;;;12.20;99.90;;;;;;5046571;28;20231;-78
2023/07/14 04:19:29;;;;;;;6.30;5.37;;;12.30;99.90;;;;;;5045568;28;20235;-78
2023/07/14 04:21:57;;;;;;;5.37;4.87;;;12.30;99.90;;;;;;5027829;28;20239;-78
2023/07/14 04:24:24;;;;;;;7.33;5.03;;;12.40;99.90;;;;;;5045633;28;20247;-78
2023/07/14 04:26:51;;;;;;;5.83;5.10;;;12.40;99.90;;;;;;5046220;28;20226;-78
2023/07/14 04:29:18;;;;;;;7.37;5.73;;;12.40;99.90;;;;;;5026737;28;20313;-77
2023/07/14 04:31:46;;;;;;;7.07;5.40;;;12.50;99.90;;;;;;5044694;28;20237;-76
2023/07/14 04:34:13;;;;;;;6.90;5.10;;;12.50;99.90;;;;;;5025849;28;20225;-77
2023/07/14 04:36:40;;;;;;;8.37;6.13;;;12.50;99.90;;;;;;5045471;28;20226;-78
2023/07/14 04:39:08;;;;;;;6.20;5.23;;;12.60;99.90;;;;;;5036471;28;20824;-79
2023/07/14 04:41:36;;;;;;;9.70;5.90;;;12.60;99.90;;;;;;5007189;28;20324;-79
2023/07/14 04:44:08;;;;;;;8.47;6.40;;;12.60;99.90;;;;;;5009255;28;20228;-80
2023/07/14 04:46:35;;;;;;;6.80;6.03;;;12.60;99.90;;;;;;5025690;28;20235;-80
2023/07/14 04:49:04;;;;;;;8.47;5.77;;;12.70;99.90;;;;;;5017893;28;20309;-79
2023/07/14 04:51:32;;;;;;;6.77;5.60;;;12.70;99.90;;;;;;5033254;28;20265;-78
2023/07/14 04:53:59;;;;;;;6.97;6.27;;;12.80;99.90;;;;;;5012267;28;20232;-80
2023/07/14 04:56:26;;;;;;;6.63;5.63;;;12.80;99.90;;;;;;5029382;28;20242;-79
2023/07/14 04:58:54;;;;;;;6.10;5.50;;;12.90;99.90;;;;;;5011833;28;20253;-79
2023/07/14 05:01:21;;;;;;;7.17;5.60;;;12.90;99.90;;;;;;4994787;28;20218;-79
2023/07/14 05:03:48;;;;;;;8.93;5.90;;;13.00;99.90;;;;;;5011413;28;20869;-79
2023/07/14 05:06:16;;;;;;;8.87;6.40;;;13.00;99.90;;;;;;5025584;28;20881;-80
2023/07/14 05:08:43;;;;;;;7.90;6.13;;;13.10;99.90;;;;;;5010642;28;20610;-78
2023/07/14 05:11:10;;;;;;;8.80;6.37;;;13.20;99.90;;;;;;5039696;28;20217;-79
2023/07/14 05:13:37;;;;;;;10.40;6.97;;;13.20;99.90;;;;;;5013419;28;20887;-79
2023/07/14 05:16:04;;;;;;;7.47;5.90;;;13.20;99.90;;;;;;5009057;28;20231;-79
2023/07/14 05:18:31;;;;;;;8.47;5.90;;;13.30;99.90;;;;;;5010070;28;20235;-79
2023/07/14 05:20:59;;;;;;;7.83;6.50;;;13.40;99.90;;;;;;4992669;28;20234;-79
2023/07/14 05:23:27;;;;;;;7.27;6.57;;;13.40;99.90;;;;;;5009480;28;20309;-79
2023/07/14 05:25:54;;;;;;;9.60;6.67;;;13.50;99.90;;;;;;5009988;28;20238;-79
2023/07/14 05:28:21;;;;;;;12.27;7.60;;;13.50;99.90;;;;;;5008976;28;20223;-79
2023/07/14 05:30:48;;;;;;;11.73;6.83;;;13.60;99.90;;;;;;5008980;28;20262;-79
2023/07/14 05:33:16;;;;;;;7.50;6.80;;;13.60;99.90;;;;;;4990747;28;20275;-79
2023/07/14 05:35:45;;;;;;;9.90;7.10;;;13.60;99.90;;;;;;5009472;28;20274;-79
2023/07/14 05:38:12;;;;;;;8.80;6.97;;;13.70;99.90;;;;;;5011212;28;20320;-79
2023/07/14 05:40:40;;;;;;;10.03;7.50;;;13.70;99.90;;;;;;5015670;28;20230;-79
2023/07/14 05:43:07;;;;;;;8.33;7.43;;;13.80;99.90;;;;;;5009407;28;20290;-79
2023/07/14 05:45:34;;;;;;;11.87;8.00;;;13.80;99.90;;;;;;5010228;28;20230;-79
2023/07/14 05:48:01;;;;;;;8.63;7.30;;;13.90;99.90;;;;;;5029552;28;20250;-79
2023/07/14 05:50:28;;;;;;;8.23;7.40;;;13.90;99.90;;;;;;5029238;28;20230;-79
2023/07/14 05:52:54;;;;;;;9.47;7.13;;;13.90;99.90;;;;;;5028980;28;20231;-79
2023/07/14 05:55:21;;;;;;;12.10;7.37;;;14.00;99.90;;;;;;5028131;28;20689;-79
2023/07/14 05:57:49;;;;;;;8.40;7.43;;;14.10;99.90;;;;;;5029244;28;20597;-79
2023/07/14 06:00:18;;;;;;;9.40;7.47;;;14.20;99.90;;;;;;5026477;28;20233;-78
2023/07/14 06:02:46;;;;;;;9.43;7.17;;;14.30;99.90;;;;;;5003461;28;20739;-78
2023/07/14 06:05:14;;;;;;;9.97;7.50;;;14.40;99.90;;;;;;5027891;28;20288;-78
2023/07/14 06:07:41;;;;;;;10.10;7.50;;;14.50;99.90;;;;;;5030881;28;20234;-79
2023/07/14 06:10:10;;;;;;;11.67;7.60;;;14.70;99.90;;;;;;4994559;28;20303;-78
2023/07/14 06:12:37;;;;;;;10.97;6.83;;;14.80;99.90;;;;;;4993062;28;20239;-78
2023/07/14 06:15:07;;;;;;;10.17;6.70;;;14.90;99.90;;;;;;5018164;28;20240;-78
2023/07/14 06:17:33;;;;;;;7.83;7.03;;;15.00;99.90;;;;;;5019232;28;20224;-79
2023/07/14 06:20:00;;;;;;;8.87;6.80;;;15.00;99.90;;;;;;5019209;28;20288;-78
2023/07/14 06:22:27;;;;;;;10.80;7.47;;;15.10;99.90;;;;;;5017868;28;20617;-79
2023/07/14 06:24:53;;;;;;;9.97;7.43;;;15.20;99.90;;;;;;5026160;28;20227;-78
2023/07/14 06:27:23;;;;;;;10.60;6.93;;;15.20;99.90;;;;;;5008292;28;20229;-78
2023/07/14 06:29:49;;;;;;;8.13;7.13;;;15.30;99.90;;;;;;5040913;28;20230;-78
2023/07/14 06:32:17;;;;;;;8.80;6.63;;;15.40;99.90;;;;;;5003961;28;20313;-79
2023/07/14 06:34:44;;;;;;;9.47;6.40;;;15.50;99.90;;;;;;5029781;28;20741;-78
2023/07/14 06:37:11;;;;;;;8.63;6.87;;;15.60;99.90;;;;;;4997031;28;20320;-79
2023/07/14 06:39:38;;;;;;;12.63;8.13;;;15.80;99.90;;;;;;5032048;28;20228;-78
2023/07/14 06:42:05;;;;;;;7.40;6.00;;;16.00;99.90;;;;;;5038958;28;20231;-79
2023/07/14 06:44:32;;;;;;;8.97;6.40;;;16.20;99.90;;;;;;5010029;28;20225;-78
2023/07/14 06:46:58;;;;;;;8.53;7.47;;;16.40;99.90;;;;;;5006750;28;20237;-79
2023/07/14 06:49:26;;;;;;;9.77;7.03;;;16.60;99.90;;;;;;5007653;28;20287;-79
2023/07/14 06:51:53;;;;;;;9.47;7.60;;;16.80;99.90;;;;;;5029528;28;20241;-80
2023/07/14 06:54:20;;;;;;;8.83;7.00;;;17.00;99.90;;;;;;5017429;28;20584;-85
2023/07/14 06:56:47;;;;;;;9.07;7.10;;;17.10;99.90;;;;;;5015333;28;20235;-79
2023/07/14 06:59:14;;;;;;;9.17;6.90;;;17.30;99.90;;;;;;5014304;28;20252;-79
2023/07/14 07:01:41;;;;;;;9.00;6.60;;;17.40;99.90;;;;;;5031126;28;20241;-79
2023/07/14 07:04:07;;;;;;;10.15;6.53;;;17.50;99.90;;;;;;5031978;28;20246;-79
2023/07/14 07:06:36;;;;;;;9.33;6.60;;;17.60;99.90;;;;;;5014362;28;20228;-80
2023/07/14 07:09:03;;;;;;;12.85;6.93;;;17.80;99.90;;;;;;5014861;28;20315;-79
2023/07/14 07:11:30;;;;;;;8.38;6.35;;;18.10;99.90;;;;;;5023016;28;20331;-80
2023/07/14 07:13:56;;;;;;;6.93;5.78;;;18.50;99.90;;;;;;5032608;28;20247;-79
2023/07/14 07:16:23;;;;;;;8.32;5.18;;;19.00;99.90;;;;;;5033230;28;20259;-79
2023/07/14 07:18:50;;;;;;;6.80;5.70;;;19.50;99.90;;;;;;5035184;28;20849;-80
2023/07/14 07:21:17;;;;;;;5.90;4.88;;;20.00;99.90;;;;;;5029886;28;20232;-80
2023/07/14 07:23:44;;;;;;;8.60;5.45;;;20.60;99.90;;;;;;4995426;28;20734;-79
2023/07/14 07:26:11;;;;;;;5.43;4.55;;;21.10;99.90;;;;;;4994416;28;20229;-79
2023/07/14 07:28:38;;;;;;;8.35;5.55;;;21.60;99.90;;;;;;5040378;28;20223;-80
2023/07/14 07:31:09;;;;;;;9.88;5.43;;;22.20;99.90;;;;;;5050603;28;20228;-80
2023/07/14 07:33:37;;;;;;;7.90;5.00;;;22.70;99.90;;;;;;5036886;28;20232;-79
2023/07/14 07:36:14;;;;;;;6.82;5.03;;;23.10;99.90;;;;;;5034481;28;20891;-80
2023/07/14 07:38:45;;;;;;;6.38;4.43;;;23.40;99.90;;;;;;5046986;28;20328;-80
2023/07/14 07:41:12;;;;;;;6.75;4.55;;;23.80;99.90;;;;;;5031229;28;20232;-80
2023/07/14 07:43:39;;;;;;;5.53;3.97;;;24.10;99.90;;;;;;5014304;28;20243;-80
2023/07/14 07:46:06;;;;;;;5.95;4.75;;;24.40;99.90;;;;;;5031250;28;20227;-80
2023/07/14 07:48:33;;;;;;;7.60;4.85;;;24.60;99.90;;;;;;5014656;28;20232;-80
2023/07/14 07:51:00;;;;;;;5.55;4.28;;;24.80;99.90;;;;;;5032735;28;20231;-80
2023/07/14 07:53:26;;;;;;;6.75;4.45;;;25.00;99.90;;;;;;5013807;28;20241;-80
2023/07/14 07:55:57;;;;;;;8.98;4.32;;;25.20;99.90;;;;;;5032654;28;20710;-80
2023/07/14 07:58:24;;;;;;;5.20;4.70;;;25.40;99.90;;;;;;5013599;28;20255;-80
2023/07/14 08:00:52;;;;;;;7.55;4.35;;;25.60;99.40;;;;;;5031373;28;20624;-80
2023/07/14 08:03:19;;;;;;;6.00;4.30;;;25.80;99.10;;;;;;5016532;28;20229;-80
2023/07/14 08:05:45;;;;;;;11.20;4.13;;;25.90;98.20;;;;;;5033852;28;20248;-79
2023/07/14 08:08:12;;;;;;;5.90;3.80;;;26.00;98.10;;;;;;5032282;28;20371;-80
2023/07/14 08:10:43;;;;;;;6.22;3.80;;;26.00;97.00;;;;;;5051535;28;20239;-79
2023/07/14 08:13:12;;;;;;;7.28;3.70;;;26.10;97.00;;;;;;5029084;28;20263;-80
2023/07/14 08:15:38;;;;;;;6.15;3.05;;;26.20;97.10;;;;;;5014802;28;20229;-79
2023/07/14 08:18:07;;;;;;;4.75;3.55;;;26.20;95.50;;;;;;5013394;28;20320;-80
2023/07/14 08:20:36;;;;;;;4.90;2.97;;;26.30;95.80;;;;;;5013730;28;20228;-80
2023/07/14 08:23:03;;;;;;;5.40;2.78;;;26.30;97.10;;;;;;5032371;28;20232;-79
2023/07/14 08:25:30;;;;;;;7.43;3.30;;;26.50;97.30;;;;;;5014712;28;20572;-81
2023/07/14 08:27:57;;;;;;;8.48;3.55;;;26.80;97.00;;;;;;5038422;28;20235;-80
2023/07/14 08:30:25;;;;;;;6.60;4.05;;;27.10;96.30;;;;;;5020012;28;20308;-81
2023/07/14 08:32:52;;;;;;;6.47;3.22;;;27.40;94.50;;;;;;5039596;28;20255;-81
2023/07/14 08:35:20;;;;;;;5.63;3.00;;;27.60;94.70;;;;;;5037941;28;20220;-81
2023/07/14 08:37:46;;;;;;;5.32;2.42;;;27.70;92.80;;;;;;5020068;28;20221;-81
2023/07/14 08:40:16;;;;;;;4.85;3.10;;;27.80;93.20;;;;;;5012011;28;20221;-81
2023/07/14 08:42:51;;;;;;;4.40;2.15;;;27.90;93.10;;;;;;5012280;28;20777;-81
2023/07/14 08:45:32;;;;;;;6.25;2.30;;;28.00;91.60;;;;;;5024103;28;20586;-80
2023/07/14 08:48:05;;;;;;;4.53;2.33;;;28.20;91.50;;;;;;5035572;28;20312;-80
2023/07/14 08:50:33;;;;;;;4.90;2.83;;;28.30;91.80;;;;;;5035084;28;20229;-81
2023/07/14 08:53:03;;;;;;;4.28;1.90;;;28.30;91.80;;;;;;5036269;28;20217;-81
2023/07/14 08:55:35;;;;;;;3.20;2.28;;;28.20;90.40;;;;;;5016437;28;20228;-81
2023/07/14 08:58:06;;;;;;;7.82;2.75;;;28.20;90.00;;;;;;5031621;28;20637;-81
2023/07/14 09:00:38;;;;;;;3.22;2.20;;;28.20;90.20;;;;;;5036016;28;20229;-81
2023/07/14 09:03:10;;;;;;;4.32;2.53;;;28.10;89.80;;;;;;5037223;28;20228;-81
2023/07/14 09:05:42;;;;;;;3.88;2.50;;;27.90;89.30;;;;;;5022410;28;20229;-81
2023/07/14 09:08:12;;;;;;;3.88;2.50;;;27.60;89.10;;;;;;5014686;28;20373;-80
2023/07/14 09:10:50;;;;;;;4.50;2.25;;;27.30;90.20;;;;;;5021198;28;20742;-80
2023/07/14 09:13:28;;;;;;;4.43;2.95;;;27.10;91.30;;;;;;5016920;28;20229;-81
2023/07/14 09:15:57;;;;;;;4.88;2.70;;;27.00;91.80;;;;;;5021517;28;20247;-81
2023/07/14 09:18:41;;;;;;;5.75;2.85;;;27.00;91.70;;;;;;5032425;28;20235;-81
2023/07/14 09:21:14;;;;;;;4.90;3.10;;;26.90;90.70;;;;;;5016983;28;20252;-81
2023/07/14 09:24:13;;;;;;;4.20;2.78;;;26.80;91.50;;;;;;5012010;28;20235;-80
2023/07/14 09:26:43;;;;;;;4.80;3.08;;;26.70;92.60;;;;;;4964310;28;20241;-81
2023/07/14 09:29:16;;;;;;;4.68;2.80;;;26.60;92.20;;;;;;5027773;28;20232;-81
2023/07/14 09:31:53;;;;;;;6.60;3.50;;;26.50;92.30;;;;;;5006442;28;20245;-81
2023/07/14 09:34:26;;;;;;;5.50;3.42;;;26.40;92.10;;;;;;5015822;28;20284;-81
2023/07/14 09:36:54;;;;;;;4.00;2.85;;;26.30;92.70;;;;;;5037910;28;20303;-81
2023/07/14 09:39:27;;;;;;;4.00;2.47;;;26.30;92.60;;;;;;5018897;28;20220;-81
2023/07/14 09:41:57;;;;;;;3.88;2.60;;;26.30;91.30;;;;;;5019257;28;20221;-81
2023/07/14 09:44:24;;;;;;;3.90;2.70;;;26.20;92.30;;;;;;5016575;28;20253;-81
2023/07/14 09:46:53;;;;;;;4.38;2.70;;;26.10;92.20;;;;;;5018635;28;20213;-81
2023/07/14 09:49:32;;;;;;;4.25;2.80;;;26.00;92.20;;;;;;5015331;28;20758;-80
2023/07/14 09:52:14;;;;;;;4.30;2.63;;;25.90;92.00;;;;;;5013793;28;20238;-77
2023/07/14 09:54:53;;;;;;;4.88;2.95;;;25.90;92.50;;;;;;5009636;28;21047;-77
2023/07/14 09:57:21;;;;;;;7.05;2.42;;;26.00;92.90;;;;;;5010005;28;20280;-78
2023/07/14 09:59:55;;;;;;;3.75;2.30;;;26.30;93.50;;;;;;5026315;28;20223;-78
2023/07/14 10:02:27;;;;;;;4.10;1.90;;;26.50;91.60;;;;;;5011767;28;20928;-80
2023/07/14 10:05:01;;;;;;;3.80;2.03;;;26.70;87.40;;;;;;5002825;23;20225;-78
2023/07/14 10:07:37;;;;;;;6.60;4.03;;;26.80;90.40;;;;;;4985854;28;20225;-78
2023/07/14 10:10:09;;;;;;;4.43;2.33;;;26.90;90.40;;;;;;5007476;28;20237;-79
2023/07/14 10:15:30;;;;;;;4.45;2.60;;;26.90;89.50;;;;;;5022589;23;21416;-82
2023/07/14 10:18:00;;;;;;;3.35;2.42;;;26.90;89.70;;;;;;5068260;28;20227;-80
2023/07/14 10:20:28;;;;;;;4.20;2.10;;;26.80;89.80;;;;;;5070581;28;20569;-79
2023/07/14 10:25:25;;;;;;;3.05;2.25;;;26.70;89.30;;;;;;4984337;28;21012;-79
2023/07/14 10:27:59;;;;;;;3.05;2.10;;;26.60;89.20;;;;;;4985823;28;20242;-78
2023/07/14 10:30:58;;;;;;;2.83;2.30;;;26.50;89.80;;;;;;4975398;23;20246;-78
2023/07/14 10:33:30;;;;;;;4.75;2.42;;;26.40;90.10;;;;;;5005115;28;20244;-81
2023/07/14 10:36:06;;;;;;;3.08;2.50;;;26.30;89.60;;;;;;5017189;22;20231;-78
2023/07/14 10:38:40;;;;;;;3.92;1.80;;;26.30;89.50;;;;;;5022439;28;20283;-79
2023/07/14 10:41:10;;;;;;;3.35;2.10;;;26.20;88.70;;;;;;5029018;28;20231;-80
2023/07/14 10:43:41;;;;;;;4.45;2.28;;;26.10;89.20;;;;;;5022904;28;20229;-78
2023/07/14 10:46:13;;;;;;;4.18;2.20;;;26.00;87.90;;;;;;4990412;28;20304;-78
2023/07/14 10:48:47;;;;;;;3.53;2.47;;;25.90;88.20;;;;;;5028191;23;20228;-79
2023/07/14 10:51:25;;;;;;;4.18;2.13;;;25.70;90.10;;;;;;5047121;28;20239;-78
2023/07/14 10:53:57;;;;;;;3.10;1.98;;;25.60;90.60;;;;;;5029071;22;20600;-80
2023/07/14 10:56:28;;;;;;;4.85;2.40;;;25.40;90.10;;;;;;5015327;28;20282;-80
2023/07/14 10:58:59;;;;;;;3.42;2.10;;;25.40;90.90;;;;;;5025121;22;20371;-78
2023/07/14 11:01:33;;;;;;;2.92;2.22;;;25.40;90.50;;;;;;5005424;28;20233;-78
2023/07/14 11:04:13;;;;;;;5.25;2.15;;;25.30;88.20;;;;;;5011316;28;20228;-79
2023/07/14 11:06:45;;;;;;;3.00;2.25;;;25.20;88.80;;;;;;5005517;28;20688;-78
2023/07/14 11:09:12;;;;;;;4.93;2.13;;;25.00;90.10;;;;;;4998171;23;20279;-79
2023/07/14 11:11:41;;;;;;;3.72;2.58;;;24.90;89.50;;;;;;5031810;28;20227;-79
2023/07/14 11:14:20;;;;;;;4.65;2.15;;;24.80;90.10;;;;;;5011422;23;20275;-77
2023/07/14 11:16:56;;;;;;;3.00;2.10;;;24.60;90.40;;;;;;5012233;28;20697;-78
2023/07/14 11:19:36;;;;;;;4.45;2.28;;;24.40;91.30;;;;;;5021640;23;20259;-78
2023/07/14 11:22:10;;;;;;;3.15;2.03;;;24.40;93.70;;;;;;5027457;28;20595;-77
2023/07/14 11:24:44;;;;;;;3.60;2.10;;;24.30;94.70;;;;;;5011090;28;20237;-79
2023/07/14 11:27:28;;;;;;;4.80;2.10;;;24.20;94.20;;;;;;5019116;22;20219;-77
2023/07/14 11:30:00;;;;;;;3.65;2.25;;;24.10;94.40;;;;;;4996180;28;20245;-79
2023/07/14 11:32:39;;;;;;;3.03;2.10;;;24.00;93.70;;;;;;5013063;23;20914;-77
2023/07/14 11:35:17;;;;;;;4.20;2.58;;;23.90;93.80;;;;;;5026994;28;20715;-78
2023/07/14 11:37:55;;;;;;;2.38;1.90;;;23.80;93.10;;;;;;5042117;28;20238;-80
2023/07/14 11:40:25;;;;;;;4.53;2.50;;;23.70;93.10;;;;;;5029624;28;20291;-77
2023/07/14 11:42:56;;;;;;;2.75;2.22;;;23.70;92.90;;;;;;5038938;28;21195;-79
2023/07/14 11:45:26;;;;;;;3.22;2.10;;;23.70;92.60;;;;;;5043758;22;20315;-79
2023/07/14 11:47:55;;;;;;;3.00;1.83;;;23.60;92.80;;;;;;5010880;28;21043;-78
2023/07/14 11:50:29;;;;;;;3.03;2.20;;;23.60;93.20;;;;;;5022344;28;20252;-79
2023/07/14 11:53:03;;;;;;;3.95;2.05;;;23.50;93.90;;;;;;5006721;28;20228;-78
2023/07/14 11:55:31;;;;;;;4.40;2.10;;;23.50;93.50;;;;;;5005904;28;20247;-80
2023/07/14 11:58:23;;;;;;;4.63;2.58;;;23.60;94.00;;;;;;4987336;28;20217;-80
2023/07/14 12:03:35;;;;;;;3.75;2.20;;;24.00;93.90;;;;;;5014555;23;20231;-81
2023/07/14 12:06:21;;;;;;;3.10;2.60;;;24.40;93.60;;;;;;5002102;28;20216;-78
2023/07/14 12:09:03;;;;;;;3.80;2.10;;;24.80;93.10;;;;;;4981930;28;20233;-80
2023/07/14 12:11:30;;;;;;;3.58;2.28;;;25.20;92.10;;;;;;4981219;22;20228;31
2023/07/14 12:13:59;;;;;;;4.13;2.30;;;25.50;92.70;;;;;;5030109;22;20226;-79
2023/07/14 12:16:47;;;;;;;4.35;2.60;;;25.70;91.30;;;;;;5039724;22;20315;-78
2023/07/14 12:19:23;;;;;;;3.75;2.63;;;25.80;91.60;;;;;;5018506;28;20235;-78
2023/07/14 12:22:06;;;;;;;4.47;2.53;;;26.00;89.50;;;;;;5041721;22;20227;-79
2023/07/14 12:24:39;;;;;;;3.05;2.40;;;26.00;91.40;;;;;;5008947;23;20247;-79
2023/07/14 12:27:18;;;;;;;2.90;2.28;;;26.00;90.60;;;;;;5033823;28;20234;-79
2023/07/14 12:29:49;;;;;;;3.00;2.30;;;26.00;89.40;;;;;;5033578;23;20614;-79
2023/07/14 12:32:18;;;;;;;5.50;2.58;;;26.20;90.80;;;;;;5025568;28;20209;-79
2023/07/14 12:34:47;;;;;;;2.90;1.88;;;26.30;90.80;;;;;;5027073;23;20304;-79
2023/07/14 12:37:20;;;;;;;3.72;2.50;;;26.40;90.30;;;;;;5022073;23;20225;-79
2023/07/14 12:39:48;;;;;;;3.30;2.40;;;26.50;88.20;;;;;;5005599;28;20224;-79
2023/07/14 12:42:16;;;;;;;3.25;2.35;;;26.50;88.60;;;;;;5035252;23;20639;-79
2023/07/14 12:47:15;;;;;;;5.00;2.65;;;26.30;88.20;;;;;;4982266;23;20305;-79
2023/07/14 12:49:46;;;;;;;3.55;2.30;;;26.10;87.70;;;;;;5002989;23;20944;-80
2023/07/14 12:52:18;;;;;;;3.70;2.63;;;25.90;88.40;;;;;;5000736;23;20569;-80
2023/07/14 12:54:48;;;;;;;5.38;2.33;;;25.80;89.40;;;;;;4996787;23;20237;-80
2023/07/14 12:57:17;;;;;;;3.85;2.50;;;25.70;90.00;;;;;;5001695;23;20630;-80
2023/07/14 12:59:48;;;;;;;2.92;2.33;;;25.60;90.80;;;;;;4983027;28;20596;-78
2023/07/14 13:02:15;;;;;;;3.58;2.45;;;25.50;88.10;;;;;;4978574;23;20225;-79
2023/07/14 13:04:42;;;;;;;4.30;2.50;;;25.40;89.20;;;;;;4987324;23;20225;-79
2023/07/14 13:09:44;;;;;;;3.67;2.05;;;25.10;87.40;;;;;;5021016;28;20224;-83
2023/07/14 13:12:14;;;;;;;4.32;2.42;;;24.80;88.60;;;;;;5003450;23;20336;-79